createdAt,value
2019-02-16T00:02:27.683Z,4.23
2019-02-16T00:05:01.642Z,6.07
2019-02-16T00:07:34.079Z,6.80
2019-02-16T00:10:08.410Z,5.70
2019-02-16T00:12:44.756Z,4.60
2019-02-16T00:15:21.823Z,4.27
2019-02-16T00:17:58.640Z,5.87
2019-02-16T00:20:33.262Z,4.60
2019-02-16T00:23:07.865Z,6.13
2019-02-16T00:25:41.657Z,7.43
2019-02-16T00:28:17.227Z,5.87
2019-02-16T00:30:55.024Z,7.70
2019-02-16T00:33:33.166Z,6.83
2019-02-16T00:36:09.603Z,6.43
2019-02-16T00:38:51.311Z,8.03
2019-02-16T00:41:26.979Z,4.93
2019-02-16T00:44:01.313Z,6.53
2019-02-16T00:46:34.751Z,7.03
2019-02-16T00:49:10.223Z,5.90
2019-02-16T00:51:48.645Z,7.90
2019-02-16T00:54:25.905Z,5.60
2019-02-16T00:57:02.223Z,5.77
2019-02-16T00:59:41.588Z,4.53
2019-02-16T01:02:18.417Z,5.50
2019-02-16T01:04:51.657Z,2.47
2019-02-16T01:07:32.588Z,3.93
2019-02-16T01:10:07.945Z,3.30
2019-02-16T01:12:41.898Z,3.27
2019-02-16T01:15:15.285Z,2.80
2019-02-16T01:17:49.360Z,2.97
2019-02-16T01:20:26.361Z,2.83
2019-02-16T01:22:59.564Z,4.33
2019-02-16T01:25:33.490Z,3.10
2019-02-16T01:28:07.282Z,6.87
2019-02-16T01:30:40.837Z,4.57
2019-02-16T01:33:14.533Z,3.70
2019-02-16T01:35:48.724Z,4.60
2019-02-16T01:38:23.127Z,5.23
2019-02-16T01:40:58.681Z,6.27
2019-02-16T01:43:41.249Z,6.53
2019-02-16T01:46:18.801Z,4.33
2019-02-16T01:48:51.965Z,5.13
2019-02-16T01:51:31.656Z,4.47
2019-02-16T01:54:06.645Z,5.57
2019-02-16T01:56:39.884Z,5.30
2019-02-16T01:59:15.047Z,6.50
2019-02-16T02:01:55.543Z,4.40
2019-02-16T02:04:29.776Z,3.90
2019-02-16T02:07:04.089Z,3.40
2019-02-16T02:09:47.683Z,2.57
2019-02-16T02:12:23.405Z,3.17
2019-02-16T02:14:57.278Z,3.30
2019-02-16T02:17:32.633Z,1.87
2019-02-16T02:20:06.725Z,2.77
2019-02-16T02:22:43.330Z,1.70
2019-02-16T02:25:16.305Z,5.13
2019-02-16T02:27:51.012Z,3.67
2019-02-16T02:30:24.307Z,4.17
2019-02-16T02:33:03.116Z,3.60
2019-02-16T02:35:39.885Z,2.80
2019-02-16T02:38:12.479Z,3.67
2019-02-16T02:40:52.420Z,2.97
2019-02-16T02:43:25.751Z,3.90
2019-02-16T02:46:01.474Z,3.90
2019-02-16T02:48:36.167Z,5.23
2019-02-16T02:51:11.756Z,4.00
2019-02-16T02:53:44.635Z,4.70
2019-02-16T02:56:17.897Z,4.87
2019-02-16T02:58:50.920Z,4.80
2019-02-16T03:01:23.481Z,3.53
2019-02-16T03:03:57.819Z,3.43
2019-02-16T03:06:30.807Z,6.00
2019-02-16T03:09:05.387Z,7.20
2019-02-16T03:11:40.053Z,3.20
2019-02-16T03:14:16.356Z,3.03
2019-02-16T03:16:50.331Z,4.07
2019-02-16T03:19:23.315Z,2.90
2019-02-16T03:22:02.437Z,5.60
2019-02-16T03:24:30.313Z,4.43
2019-02-16T03:27:05.658Z,6.63
2019-02-16T03:29:39.778Z,5.00
2019-02-16T03:32:19.930Z,6.63
2019-02-16T03:35:03.117Z,9.13
2019-02-16T03:37:55.599Z,13.97
2019-02-16T03:40:28.077Z,11.67
2019-02-16T03:43:00.647Z,11.97
2019-02-16T03:45:34.148Z,3.70
2019-02-16T03:48:06.723Z,8.23
2019-02-16T03:50:39.867Z,3.70
2019-02-16T03:53:12.391Z,2.53
2019-02-16T03:55:44.739Z,3.77
2019-02-16T03:58:17.338Z,3.03
2019-02-16T04:00:49.707Z,2.67
2019-02-16T04:03:22.187Z,6.07
2019-02-16T04:05:54.520Z,7.63
2019-02-16T04:08:26.937Z,5.00
2019-02-16T04:11:01.155Z,4.63
2019-02-16T04:13:33.629Z,4.23
2019-02-16T04:16:05.856Z,6.13
2019-02-16T04:18:38.184Z,5.17
2019-02-16T04:21:10.714Z,6.60
2019-02-16T04:23:43.127Z,5.10
2019-02-16T04:26:15.516Z,4.90
2019-02-16T04:28:48.075Z,5.77
2019-02-16T04:31:20.464Z,9.83
2019-02-16T04:33:52.912Z,7.17
2019-02-16T04:36:25.265Z,8.57
2019-02-16T04:38:57.863Z,4.70
2019-02-16T04:41:30.441Z,6.57
2019-02-16T04:44:02.610Z,5.77
2019-02-16T04:46:35.161Z,5.17
2019-02-16T04:49:07.552Z,8.00
2019-02-16T04:51:40.339Z,5.47
2019-02-16T04:54:12.602Z,2.83
2019-02-16T04:56:44.905Z,6.23
2019-02-16T04:59:17.459Z,3.73
2019-02-16T05:01:50.178Z,3.87
2019-02-16T05:04:22.716Z,2.97
2019-02-16T05:06:55.195Z,4.40
2019-02-16T05:09:27.668Z,4.93
2019-02-16T05:12:00.163Z,4.03
2019-02-16T05:14:32.618Z,5.23
2019-02-16T05:17:05.194Z,4.93
2019-02-16T05:19:37.684Z,5.23
2019-02-16T05:22:10.100Z,7.70
2019-02-16T05:24:42.531Z,4.87
2019-02-16T05:27:14.991Z,4.20
2019-02-16T05:29:47.572Z,5.00
2019-02-16T05:32:20.042Z,14.97
2019-02-16T05:34:52.555Z,5.53
2019-02-16T05:37:25.097Z,12.47
2019-02-16T05:39:57.674Z,10.03
2019-02-16T05:42:30.262Z,10.77
2019-02-16T05:45:02.596Z,6.93
2019-02-16T05:47:34.900Z,14.83
2019-02-16T05:50:07.474Z,16.53
2019-02-16T05:52:41.486Z,10.83
2019-02-16T05:55:13.947Z,16.40
2019-02-16T05:57:46.008Z,18.00
2019-02-16T06:00:20.238Z,13.47
2019-02-16T06:02:52.476Z,4.93
2019-02-16T06:05:24.832Z,7.20
2019-02-16T06:07:57.362Z,7.53
2019-02-16T06:10:29.746Z,6.57
2019-02-16T06:13:02.169Z,4.00
2019-02-16T06:15:34.600Z,5.10
2019-02-16T06:18:07.051Z,8.17
2019-02-16T06:20:39.629Z,7.37
2019-02-16T06:23:12.103Z,6.40
2019-02-16T06:25:44.569Z,12.70
2019-02-16T06:28:16.950Z,12.10
2019-02-16T06:30:49.328Z,7.07
2019-02-16T06:33:21.594Z,6.20
2019-02-16T06:35:55.809Z,5.83
2019-02-16T06:38:28.286Z,9.40
2019-02-16T06:41:02.605Z,8.30
2019-02-16T06:43:35.178Z,10.07
2019-02-16T06:46:07.864Z,17.17
2019-02-16T06:48:40.222Z,19.13
2019-02-16T06:51:12.630Z,21.03
2019-02-16T06:53:46.722Z,13.57
2019-02-16T06:56:21.345Z,5.63
2019-02-16T06:58:53.614Z,8.07
2019-02-16T07:01:26.090Z,13.37
2019-02-16T07:03:58.670Z,7.47
2019-02-16T07:06:31.237Z,8.43
2019-02-16T07:09:04.583Z,9.93
2019-02-16T07:11:38.035Z,8.00
2019-02-16T07:14:10.512Z,17.37
2019-02-16T07:16:46.585Z,13.63
2019-02-16T07:19:21.067Z,11.73
2019-02-16T07:21:53.467Z,17.63
2019-02-16T07:24:25.774Z,10.90
2019-02-16T07:26:58.152Z,12.20
2019-02-16T07:29:30.484Z,15.27
2019-02-16T07:32:03.263Z,18.07
2019-02-16T07:34:35.979Z,7.40
2019-02-16T07:37:08.633Z,6.03
2019-02-16T07:39:40.945Z,4.30
2019-02-16T07:42:15.405Z,15.93
2019-02-16T07:44:59.467Z,9.67
2019-02-16T07:47:33.681Z,10.70
2019-02-16T07:50:08.295Z,16.40
2019-02-16T07:52:45.225Z,13.33
2019-02-16T07:55:31.701Z,11.93
2019-02-16T07:58:10.000Z,10.27
2019-02-16T08:00:44.268Z,8.27
2019-02-16T08:03:21.402Z,10.43
2019-02-16T08:05:58.787Z,12.47
2019-02-16T08:08:33.106Z,17.77
2019-02-16T08:11:24.530Z,10.87
2019-02-16T08:14:15.637Z,6.93
2019-02-16T08:16:49.856Z,8.27
2019-02-16T08:19:26.979Z,6.77
2019-02-16T08:22:03.917Z,4.97
2019-02-16T08:24:48.068Z,5.57
2019-02-16T08:27:22.349Z,3.97
2019-02-16T08:29:56.708Z,8.07
2019-02-16T08:32:47.616Z,10.13
2019-02-16T08:35:31.042Z,8.00
2019-02-16T08:38:14.166Z,8.17
2019-02-16T08:40:54.525Z,11.43
2019-02-16T08:43:34.540Z,7.90
2019-02-16T08:46:14.559Z,11.20
2019-02-16T08:49:04.210Z,6.23
2019-02-16T08:51:54.811Z,6.77
2019-02-16T08:54:29.127Z,10.83
2019-02-16T08:57:06.359Z,7.30
2019-02-16T08:59:49.644Z,5.97
2019-02-16T09:02:27.132Z,7.07
2019-02-16T09:05:05.506Z,7.37
2019-02-16T09:07:39.861Z,17.47
2019-02-16T09:10:17.053Z,8.33
2019-02-16T09:12:54.441Z,10.63
2019-02-16T09:15:40.535Z,8.70
2019-02-16T09:18:26.835Z,4.63
2019-02-16T09:21:01.256Z,10.60
2019-02-16T09:23:41.516Z,10.30
2019-02-16T09:26:28.427Z,4.87
2019-02-16T09:29:02.644Z,7.30
2019-02-16T09:31:49.148Z,3.80
2019-02-16T09:34:29.508Z,6.80
2019-02-16T09:37:09.664Z,3.97
2019-02-16T09:39:46.951Z,5.47
2019-02-16T09:42:24.440Z,9.27
2019-02-16T09:44:58.639Z,6.30
2019-02-16T09:47:45.160Z,9.30
2019-02-16T09:50:23.312Z,10.43
2019-02-16T09:53:06.904Z,6.70
2019-02-16T09:55:44.056Z,6.33
2019-02-16T09:58:18.225Z,4.53
2019-02-16T10:01:01.535Z,2.30
2019-02-16T10:03:39.644Z,5.80
2019-02-16T10:06:22.976Z,1.67
2019-02-16T10:09:09.172Z,3.53
2019-02-16T10:11:49.242Z,3.03
2019-02-16T10:14:26.404Z,6.47
2019-02-16T10:17:10.080Z,6.80
2019-02-16T10:19:53.474Z,2.50
2019-02-16T10:22:40.494Z,3.47
2019-02-16T10:25:31.395Z,3.33
2019-02-16T10:28:22.382Z,3.40
2019-02-16T10:31:02.561Z,2.23
2019-02-16T10:33:39.748Z,4.73
2019-02-16T10:36:14.169Z,3.87
2019-02-16T10:38:48.370Z,4.30
2019-02-16T10:41:26.081Z,2.47
2019-02-16T10:44:14.531Z,4.63
2019-02-16T10:47:00.950Z,5.67
2019-02-16T10:49:42.317Z,5.00
2019-02-16T10:52:16.626Z,6.40
2019-02-16T10:54:55.359Z,4.63
2019-02-16T10:57:46.569Z,3.77
2019-02-16T11:00:31.845Z,3.43
2019-02-16T11:03:12.001Z,4.47
2019-02-16T11:05:58.304Z,5.13
2019-02-16T11:08:47.878Z,6.03
2019-02-16T11:11:33.971Z,4.50
2019-02-16T11:14:08.347Z,3.83
2019-02-16T11:16:45.448Z,3.40
2019-02-16T11:19:25.835Z,3.50
2019-02-16T11:22:09.062Z,4.27
2019-02-16T11:24:58.738Z,3.13
2019-02-16T11:27:48.112Z,3.13
2019-02-16T11:30:22.325Z,7.37
2019-02-16T11:32:59.514Z,3.30
2019-02-16T11:35:42.742Z,4.30
2019-02-16T11:38:17.057Z,2.17
2019-02-16T11:40:52.575Z,3.00
2019-02-16T11:43:30.711Z,3.13
2019-02-16T11:46:13.636Z,2.70
2019-02-16T11:48:53.796Z,4.87
2019-02-16T11:51:28.107Z,2.97
2019-02-16T11:54:08.466Z,4.23
2019-02-16T11:56:52.923Z,4.13
2019-02-16T11:59:27.345Z,10.23
2019-02-16T12:02:05.655Z,3.87
2019-02-16T12:04:52.056Z,5.73
2019-02-16T12:07:28.931Z,1.90
2019-02-16T12:10:09.128Z,4.30
2019-02-16T12:12:43.405Z,7.97
2019-02-16T12:15:19.061Z,2.13
2019-02-16T12:18:03.517Z,3.40
2019-02-16T12:20:46.026Z,2.43
2019-02-16T12:23:24.540Z,2.37
2019-02-16T12:25:59.084Z,3.00
2019-02-16T12:28:45.364Z,6.27
2019-02-16T12:31:37.813Z,2.03
2019-02-16T12:34:24.203Z,2.43
2019-02-16T12:36:58.524Z,2.83
2019-02-16T12:39:35.223Z,5.60
2019-02-16T12:42:11.256Z,1.70
2019-02-16T12:44:52.232Z,1.70
2019-02-16T12:47:26.781Z,1.77
2019-02-16T12:50:15.931Z,1.67
2019-02-16T12:52:50.436Z,8.80
2019-02-16T12:55:27.735Z,2.00
2019-02-16T12:58:11.369Z,5.80
2019-02-16T13:00:48.377Z,5.20
2019-02-16T13:03:22.567Z,4.93
2019-02-16T13:06:13.482Z,3.03
2019-02-16T13:08:59.885Z,2.90
2019-02-16T13:11:40.234Z,2.60
2019-02-16T13:14:31.370Z,1.83
2019-02-16T13:17:22.151Z,6.50
2019-02-16T13:19:56.777Z,7.17
2019-02-16T13:22:31.199Z,6.57
2019-02-16T13:25:12.009Z,3.07
2019-02-16T13:27:55.094Z,2.30
2019-02-16T13:30:35.820Z,3.20
2019-02-16T13:33:10.691Z,3.70
2019-02-16T13:35:54.330Z,2.33
2019-02-16T13:38:30.082Z,4.17
2019-02-16T13:41:04.287Z,3.17
2019-02-16T13:43:38.510Z,3.63
2019-02-16T13:46:22.149Z,4.63
2019-02-16T13:48:56.463Z,3.33
2019-02-16T13:51:30.809Z,4.73
2019-02-16T13:54:05.015Z,5.07
2019-02-16T13:56:39.523Z,11.03
2019-02-16T13:59:13.942Z,2.37
2019-02-16T14:01:50.943Z,5.40
2019-02-16T14:04:28.414Z,2.80
2019-02-16T14:07:02.527Z,2.17
2019-02-16T14:09:40.019Z,2.43
2019-02-16T14:12:33.692Z,2.60
2019-02-16T14:15:09.626Z,2.30
2019-02-16T14:17:45.199Z,2.23
2019-02-16T14:20:17.603Z,4.67
2019-02-16T14:22:50.114Z,5.60
2019-02-16T14:25:31.021Z,1.63
2019-02-16T14:28:03.494Z,3.20
2019-02-16T14:30:38.333Z,3.60
2019-02-16T14:33:13.174Z,3.70
2019-02-16T14:35:47.439Z,6.60
2019-02-16T14:38:27.844Z,2.10
2019-02-16T14:41:00.345Z,2.17
2019-02-16T14:43:33.805Z,1.33
2019-02-16T14:46:08.439Z,3.00
2019-02-16T14:48:41.049Z,6.00
2019-02-16T14:51:13.485Z,4.83
2019-02-16T14:53:45.954Z,5.87
2019-02-16T14:56:19.360Z,5.27
2019-02-16T14:58:51.944Z,5.67
2019-02-16T15:01:25.913Z,5.43
2019-02-16T15:03:58.527Z,5.07
2019-02-16T15:06:31.826Z,3.27
2019-02-16T15:09:05.020Z,4.50
2019-02-16T15:11:37.697Z,4.47
2019-02-16T15:14:10.166Z,4.60
2019-02-16T15:16:42.637Z,7.63
2019-02-16T15:19:15.011Z,3.93
2019-02-16T15:21:47.485Z,4.60
2019-02-16T15:24:20.883Z,6.90
2019-02-16T15:26:54.184Z,4.13
2019-02-16T15:29:29.518Z,4.27
2019-02-16T15:32:03.856Z,4.37
2019-02-16T15:34:38.168Z,3.80
2019-02-16T15:37:10.730Z,11.27
2019-02-16T15:39:43.236Z,11.83
2019-02-16T15:42:15.563Z,9.90
2019-02-16T15:44:48.042Z,21.20
2019-02-16T15:47:21.635Z,13.93
2019-02-16T15:49:53.998Z,9.73
2019-02-16T15:52:26.420Z,6.73
2019-02-16T15:55:01.439Z,6.83
2019-02-16T15:57:34.115Z,9.93
2019-02-16T16:00:07.417Z,9.57
2019-02-16T16:02:49.196Z,7.50
2019-02-16T16:05:25.871Z,8.00
2019-02-16T16:08:02.470Z,6.53
2019-02-16T16:10:39.938Z,6.00
2019-02-16T16:13:17.050Z,5.90
2019-02-16T16:15:57.599Z,7.17
2019-02-16T16:18:41.121Z,4.40
2019-02-16T16:21:30.598Z,8.83
2019-02-16T16:24:22.945Z,8.13
2019-02-16T16:27:02.795Z,8.27
2019-02-16T16:29:36.943Z,6.40
2019-02-16T16:32:17.678Z,10.23
2019-02-16T16:34:55.058Z,6.77
2019-02-16T16:37:39.314Z,7.73
2019-02-16T16:40:27.016Z,8.67
2019-02-16T16:43:04.233Z,7.13
2019-02-16T16:45:56.247Z,6.80
2019-02-16T16:48:36.727Z,4.87
2019-02-16T16:51:14.777Z,8.27
2019-02-16T16:53:48.941Z,6.53
2019-02-16T16:56:30.373Z,4.40
2019-02-16T16:59:22.472Z,8.90
2019-02-16T17:02:00.378Z,5.63
2019-02-16T17:04:43.814Z,6.33
2019-02-16T17:07:18.123Z,5.37
2019-02-16T17:09:54.019Z,6.20
2019-02-16T17:12:40.482Z,6.53
2019-02-16T17:15:31.699Z,6.00
2019-02-16T17:18:11.158Z,5.07
2019-02-16T17:20:59.482Z,9.33
2019-02-16T17:23:38.094Z,9.17
2019-02-16T17:26:37.269Z,15.30
2019-02-16T17:29:10.139Z,13.13
2019-02-16T17:31:44.712Z,11.57
2019-02-16T17:34:23.629Z,8.70
2019-02-16T17:36:58.979Z,9.97
2019-02-16T17:39:39.231Z,11.10
2019-02-16T17:42:28.361Z,10.73
2019-02-16T17:45:02.714Z,10.23
2019-02-16T17:47:46.462Z,13.07
2019-02-16T17:50:26.670Z,8.87
2019-02-16T17:53:17.956Z,11.70
2019-02-16T17:55:57.980Z,10.73
2019-02-16T17:58:38.340Z,11.27
2019-02-16T18:01:21.770Z,10.13
2019-02-16T18:03:58.957Z,11.00
2019-02-16T18:06:49.866Z,17.10
2019-02-16T18:09:30.326Z,17.63
2019-02-16T18:12:16.935Z,14.17
2019-02-16T18:15:07.633Z,13.27
2019-02-16T18:17:43.079Z,15.53
2019-02-16T18:20:32.551Z,15.00
2019-02-16T18:23:23.563Z,19.23
2019-02-16T18:25:57.819Z,18.33
2019-02-16T18:28:57.063Z,18.03
2019-02-16T18:31:27.510Z,17.83
2019-02-16T18:34:10.747Z,18.60
2019-02-16T18:36:46.075Z,21.90
2019-02-16T18:39:21.898Z,20.20
2019-02-16T18:42:02.020Z,19.83
2019-02-16T18:44:37.333Z,18.50
2019-02-16T18:47:24.138Z,14.23
2019-02-16T18:50:16.881Z,11.00
2019-02-16T18:52:54.286Z,17.50
2019-02-16T18:55:34.869Z,18.13
2019-02-16T18:58:11.422Z,15.90
2019-02-16T19:00:55.055Z,11.97
2019-02-16T19:03:39.209Z,12.33
2019-02-16T19:06:16.503Z,13.20
2019-02-16T19:08:50.922Z,16.23
2019-02-16T19:11:31.703Z,16.33
2019-02-16T19:14:10.516Z,33.13
2019-02-16T19:17:00.079Z,21.93
2019-02-16T19:19:37.572Z,18.43
2019-02-16T19:22:13.633Z,24.00
2019-02-16T19:24:48.767Z,19.23
2019-02-16T19:27:40.699Z,15.30
2019-02-16T19:30:19.011Z,16.47
2019-02-16T19:32:57.012Z,19.77
2019-02-16T19:35:38.091Z,16.67
2019-02-16T19:38:13.538Z,14.37
2019-02-16T19:40:48.776Z,13.70
2019-02-16T19:43:41.225Z,14.10
2019-02-16T19:46:16.786Z,11.80
2019-02-16T19:49:10.777Z,14.83
2019-02-16T19:51:55.611Z,11.43
2019-02-16T19:54:33.929Z,20.80
2019-02-16T19:57:15.351Z,14.43
2019-02-16T19:59:50.923Z,10.87
2019-02-16T20:02:26.356Z,12.70
2019-02-16T20:05:08.171Z,9.07
2019-02-16T20:07:47.415Z,11.33
2019-02-16T20:10:28.803Z,11.30
2019-02-16T20:13:15.148Z,9.90
2019-02-16T20:16:07.657Z,12.13
2019-02-16T20:18:53.242Z,12.03
2019-02-16T20:21:29.297Z,9.07
2019-02-16T20:24:05.978Z,11.50
2019-02-16T20:26:42.050Z,13.90
2019-02-16T20:29:26.692Z,9.80
2019-02-16T20:32:05.008Z,13.57
2019-02-16T20:34:43.417Z,12.33
2019-02-16T20:37:21.938Z,6.73
2019-02-16T20:39:57.813Z,6.90
2019-02-16T20:42:42.500Z,8.70
2019-02-16T20:45:34.485Z,7.43
2019-02-16T20:48:19.000Z,11.53
2019-02-16T20:50:55.724Z,8.17
2019-02-16T20:53:31.060Z,7.67
2019-02-16T20:56:12.803Z,9.03
2019-02-16T20:58:50.297Z,10.30
2019-02-16T21:01:28.362Z,9.03
2019-02-16T21:04:03.693Z,7.47
2019-02-16T21:06:40.653Z,10.40
2019-02-16T21:09:23.119Z,7.30
2019-02-16T21:12:02.504Z,7.00
2019-02-16T21:14:47.587Z,11.13
2019-02-16T21:17:24.425Z,10.23
2019-02-16T21:20:17.275Z,8.50
2019-02-16T21:22:53.281Z,9.07
2019-02-16T21:25:38.262Z,8.23
2019-02-16T21:28:24.416Z,9.43
2019-02-16T21:31:00.358Z,12.67
2019-02-16T21:33:36.537Z,7.47
2019-02-16T21:36:30.059Z,11.30
2019-02-16T21:39:08.821Z,17.97
2019-02-16T21:41:49.724Z,17.80
2019-02-16T21:44:40.221Z,12.70
2019-02-16T21:47:15.711Z,10.93
2019-02-16T21:49:56.231Z,10.80
2019-02-16T21:52:43.758Z,9.67
2019-02-16T21:55:19.510Z,10.87
2019-02-16T21:58:07.754Z,14.03
2019-02-16T22:00:38.041Z,9.33
2019-02-16T22:03:12.909Z,7.80
2019-02-16T22:05:47.533Z,9.23
2019-02-16T22:08:24.963Z,7.70
2019-02-16T22:11:16.859Z,6.60
2019-02-16T22:13:49.342Z,7.37
2019-02-16T22:16:21.805Z,8.43
2019-02-16T22:18:54.379Z,17.73
2019-02-16T22:21:27.649Z,14.00
2019-02-16T22:24:00.049Z,12.07
2019-02-16T22:26:32.573Z,11.43
2019-02-16T22:29:05.204Z,10.13
2019-02-16T22:31:37.578Z,20.70
2019-02-16T22:34:14.271Z,7.17
2019-02-16T22:36:46.811Z,8.53
2019-02-16T22:39:21.055Z,8.40
2019-02-16T22:41:55.260Z,8.77
2019-02-16T22:44:27.825Z,4.70
2019-02-16T22:47:00.412Z,9.37
2019-02-16T22:49:34.939Z,7.90
2019-02-16T22:52:08.929Z,10.63
2019-02-16T22:54:41.526Z,12.03
2019-02-16T22:57:15.026Z,8.43
2019-02-16T22:59:49.721Z,9.17
2019-02-16T23:02:22.558Z,8.00
2019-02-16T23:04:55.122Z,7.43
2019-02-16T23:07:30.054Z,7.70
2019-02-16T23:10:03.147Z,7.07
2019-02-16T23:12:35.883Z,7.57
2019-02-16T23:15:08.410Z,9.93
2019-02-16T23:17:44.454Z,6.77
2019-02-16T23:20:17.182Z,7.67
2019-02-16T23:22:49.629Z,8.67
2019-02-16T23:25:23.821Z,7.30
2019-02-16T23:27:56.485Z,5.47
2019-02-16T23:30:29.580Z,6.30
2019-02-16T23:33:02.240Z,6.37
2019-02-16T23:35:35.053Z,8.10
2019-02-16T23:38:08.352Z,6.43
2019-02-16T23:40:40.827Z,8.03
2019-02-16T23:43:16.600Z,6.03
2019-02-16T23:45:49.700Z,6.57
2019-02-16T23:48:25.222Z,6.33
2019-02-16T23:50:59.647Z,5.80
2019-02-16T23:53:32.315Z,4.73
2019-02-16T23:56:06.625Z,9.53
2019-02-16T23:58:48.705Z,5.77
